sensor_id;sensor_type;location;lat;lon;timestamp;P1;durP1;ratioP1;P2;durP2;ratioP2
39490;SDS011;25175;50.140;18.990;2022-08-19T00:01:50;15.00;;;9.90;;
39490;SDS011;25175;50.140;18.990;2022-08-19T00:04:54;18.08;;;11.18;;
39490;SDS011;25175;50.140;18.990;2022-08-19T00:07:56;17.75;;;9.68;;
39490;SDS011;25175;50.140;18.990;2022-08-19T00:11:00;17.67;;;10.43;;
39490;SDS011;25175;50.140;18.990;2022-08-19T00:14:02;17.35;;;10.98;;
39490;SDS011;25175;50.140;18.990;2022-08-19T00:17:06;21.48;;;11.57;;
39490;SDS011;25175;50.140;18.990;2022-08-19T00:20:12;22.08;;;11.02;;
39490;SDS011;25175;50.140;18.990;2022-08-19T00:23:18;18.80;;;10.93;;
39490;SDS011;25175;50.140;18.990;2022-08-19T00:26:21;20.48;;;11.85;;
39490;SDS011;25175;50.140;18.990;2022-08-19T00:29:24;19.23;;;11.10;;
39490;SDS011;25175;50.140;18.990;2022-08-19T00:32:26;21.33;;;11.15;;
39490;SDS011;25175;50.140;18.990;2022-08-19T00:35:29;21.38;;;11.57;;
39490;SDS011;25175;50.140;18.990;2022-08-19T00:38:31;22.80;;;11.35;;
39490;SDS011;25175;50.140;18.990;2022-08-19T00:41:35;16.80;;;10.55;;
39490;SDS011;25175;50.140;18.990;2022-08-19T00:44:37;21.13;;;11.65;;
39490;SDS011;25175;50.140;18.990;2022-08-19T00:47:39;16.45;;;10.57;;
39490;SDS011;25175;50.140;18.990;2022-08-19T00:50:42;19.23;;;11.68;;
39490;SDS011;25175;50.140;18.990;2022-08-19T00:53:46;21.85;;;11.48;;
39490;SDS011;25175;50.140;18.990;2022-08-19T00:56:49;21.63;;;11.68;;
39490;SDS011;25175;50.140;18.990;2022-08-19T00:59:52;18.27;;;11.55;;
39490;SDS011;25175;50.140;18.990;2022-08-19T01:02:56;22.80;;;11.93;;
39490;SDS011;25175;50.140;18.990;2022-08-19T01:05:59;21.27;;;11.38;;
39490;SDS011;25175;50.140;18.990;2022-08-19T01:09:01;20.15;;;11.55;;
39490;SDS011;25175;50.140;18.990;2022-08-19T01:12:06;21.35;;;10.90;;
39490;SDS011;25175;50.140;18.990;2022-08-19T01:15:11;18.25;;;11.10;;
39490;SDS011;25175;50.140;18.990;2022-08-19T01:18:15;19.15;;;11.07;;
39490;SDS011;25175;50.140;18.990;2022-08-19T01:21:22;21.48;;;12.18;;
39490;SDS011;25175;50.140;18.990;2022-08-19T01:24:31;20.88;;;11.80;;
39490;SDS011;25175;50.140;18.990;2022-08-19T01:27:37;20.15;;;11.88;;
39490;SDS011;25175;50.140;18.990;2022-08-19T01:30:40;19.63;;;12.30;;
39490;SDS011;25175;50.140;18.990;2022-08-19T01:33:44;22.50;;;12.30;;
39490;SDS011;25175;50.140;18.990;2022-08-19T01:36:47;19.13;;;12.02;;
39490;SDS011;25175;50.140;18.990;2022-08-19T01:39:51;21.27;;;11.82;;
39490;SDS011;25175;50.140;18.990;2022-08-19T01:42:53;21.38;;;12.48;;
39490;SDS011;25175;50.140;18.990;2022-08-19T01:45:55;20.30;;;12.40;;
39490;SDS011;25175;50.140;18.990;2022-08-19T01:48:57;20.30;;;12.65;;
39490;SDS011;25175;50.140;18.990;2022-08-19T01:52:00;23.80;;;12.38;;
39490;SDS011;25175;50.140;18.990;2022-08-19T01:55:04;23.45;;;12.70;;
39490;SDS011;25175;50.140;18.990;2022-08-19T01:58:08;25.00;;;12.55;;
39490;SDS011;25175;50.140;18.990;2022-08-19T02:04:17;22.95;;;12.10;;
39490;SDS011;25175;50.140;18.990;2022-08-19T02:07:19;19.05;;;12.05;;
39490;SDS011;25175;50.140;18.990;2022-08-19T02:10:23;20.98;;;12.23;;
39490;SDS011;25175;50.140;18.990;2022-08-19T02:13:26;23.80;;;12.90;;
39490;SDS011;25175;50.140;18.990;2022-08-19T02:16:29;24.15;;;12.52;;
39490;SDS011;25175;50.140;18.990;2022-08-19T02:19:32;22.63;;;12.90;;
39490;SDS011;25175;50.140;18.990;2022-08-19T02:22:34;20.85;;;12.35;;
39490;SDS011;25175;50.140;18.990;2022-08-19T02:25:38;17.17;;;11.63;;
39490;SDS011;25175;50.140;18.990;2022-08-19T02:28:40;23.00;;;12.80;;
39490;SDS011;25175;50.140;18.990;2022-08-19T02:31:43;18.60;;;12.70;;
39490;SDS011;25175;50.140;18.990;2022-08-19T02:34:46;22.30;;;12.63;;
39490;SDS011;25175;50.140;18.990;2022-08-19T02:37:48;18.25;;;12.38;;
39490;SDS011;25175;50.140;18.990;2022-08-19T02:41:11;23.27;;;13.05;;
39490;SDS011;25175;50.140;18.990;2022-08-19T02:44:15;25.52;;;13.27;;
39490;SDS011;25175;50.140;18.990;2022-08-19T02:47:17;23.30;;;13.43;;
39490;SDS011;25175;50.140;18.990;2022-08-19T02:50:20;21.13;;;13.18;;
39490;SDS011;25175;50.140;18.990;2022-08-19T02:53:22;21.98;;;13.32;;
39490;SDS011;25175;50.140;18.990;2022-08-19T02:56:28;22.95;;;12.85;;
39490;SDS011;25175;50.140;18.990;2022-08-19T02:59:31;24.55;;;14.15;;
39490;SDS011;25175;50.140;18.990;2022-08-19T03:02:34;21.88;;;13.70;;
39490;SDS011;25175;50.140;18.990;2022-08-19T03:05:36;27.10;;;13.63;;
39490;SDS011;25175;50.140;18.990;2022-08-19T03:08:39;28.60;;;14.50;;
39490;SDS011;25175;50.140;18.990;2022-08-19T03:11:44;22.58;;;14.13;;
39490;SDS011;25175;50.140;18.990;2022-08-19T03:14:46;24.90;;;13.77;;
39490;SDS011;25175;50.140;18.990;2022-08-19T03:17:48;27.23;;;14.88;;
39490;SDS011;25175;50.140;18.990;2022-08-19T03:20:51;22.10;;;14.18;;
39490;SDS011;25175;50.140;18.990;2022-08-19T03:23:55;27.15;;;14.82;;
39490;SDS011;25175;50.140;18.990;2022-08-19T03:27:00;26.95;;;14.73;;
39490;SDS011;25175;50.140;18.990;2022-08-19T03:30:03;22.98;;;14.88;;
39490;SDS011;25175;50.140;18.990;2022-08-19T03:33:07;25.20;;;14.52;;
39490;SDS011;25175;50.140;18.990;2022-08-19T03:36:12;25.23;;;14.20;;
39490;SDS011;25175;50.140;18.990;2022-08-19T03:39:15;25.25;;;14.70;;
39490;SDS011;25175;50.140;18.990;2022-08-19T03:42:19;23.35;;;13.95;;
39490;SDS011;25175;50.140;18.990;2022-08-19T03:45:21;23.38;;;14.50;;
39490;SDS011;25175;50.140;18.990;2022-08-19T03:48:24;24.30;;;14.52;;
39490;SDS011;25175;50.140;18.990;2022-08-19T03:51:26;25.27;;;14.77;;
39490;SDS011;25175;50.140;18.990;2022-08-19T03:54:31;22.90;;;13.75;;
39490;SDS011;25175;50.140;18.990;2022-08-19T03:57:35;25.63;;;14.60;;
39490;SDS011;25175;50.140;18.990;2022-08-19T04:00:37;21.63;;;12.70;;
39490;SDS011;25175;50.140;18.990;2022-08-19T04:03:39;26.10;;;13.77;;
39490;SDS011;25175;50.140;18.990;2022-08-19T04:06:42;21.67;;;13.38;;
39490;SDS011;25175;50.140;18.990;2022-08-19T04:09:44;22.70;;;13.98;;
39490;SDS011;25175;50.140;18.990;2022-08-19T04:12:48;23.90;;;14.18;;
39490;SDS011;25175;50.140;18.990;2022-08-19T04:15:50;23.05;;;13.23;;
39490;SDS011;25175;50.140;18.990;2022-08-19T04:18:53;24.13;;;13.32;;
39490;SDS011;25175;50.140;18.990;2022-08-19T04:21:55;25.50;;;14.18;;
39490;SDS011;25175;50.140;18.990;2022-08-19T04:24:57;27.83;;;14.32;;
39490;SDS011;25175;50.140;18.990;2022-08-19T04:28:01;30.10;;;14.32;;
39490;SDS011;25175;50.140;18.990;2022-08-19T04:31:03;24.90;;;14.07;;
39490;SDS011;25175;50.140;18.990;2022-08-19T04:34:07;27.02;;;14.93;;
39490;SDS011;25175;50.140;18.990;2022-08-19T04:37:10;28.48;;;15.73;;
39490;SDS011;25175;50.140;18.990;2022-08-19T04:40:14;26.13;;;14.43;;
39490;SDS011;25175;50.140;18.990;2022-08-19T04:43:36;27.73;;;15.68;;
39490;SDS011;25175;50.140;18.990;2022-08-19T04:46:40;27.45;;;15.00;;
39490;SDS011;25175;50.140;18.990;2022-08-19T04:49:42;26.67;;;14.95;;
39490;SDS011;25175;50.140;18.990;2022-08-19T04:52:44;29.65;;;15.45;;
39490;SDS011;25175;50.140;18.990;2022-08-19T04:55:47;30.52;;;15.35;;
39490;SDS011;25175;50.140;18.990;2022-08-19T04:58:50;25.30;;;14.82;;
39490;SDS011;25175;50.140;18.990;2022-08-19T05:01:53;23.42;;;14.32;;
39490;SDS011;25175;50.140;18.990;2022-08-19T05:04:56;25.35;;;14.80;;
39490;SDS011;25175;50.140;18.990;2022-08-19T05:08:01;27.83;;;14.88;;
39490;SDS011;25175;50.140;18.990;2022-08-19T05:11:07;23.90;;;14.80;;
39490;SDS011;25175;50.140;18.990;2022-08-19T05:14:13;30.35;;;14.85;;
39490;SDS011;25175;50.140;18.990;2022-08-19T05:17:15;26.75;;;15.23;;
39490;SDS011;25175;50.140;18.990;2022-08-19T05:20:17;34.53;;;14.63;;
39490;SDS011;25175;50.140;18.990;2022-08-19T05:23:36;25.52;;;14.50;;
39490;SDS011;25175;50.140;18.990;2022-08-19T05:26:39;28.20;;;14.45;;
39490;SDS011;25175;50.140;18.990;2022-08-19T05:29:48;24.65;;;14.32;;
39490;SDS011;25175;50.140;18.990;2022-08-19T05:32:50;24.17;;;13.75;;
39490;SDS011;25175;50.140;18.990;2022-08-19T05:35:52;25.45;;;14.77;;
39490;SDS011;25175;50.140;18.990;2022-08-19T05:38:54;25.17;;;13.25;;
39490;SDS011;25175;50.140;18.990;2022-08-19T05:41:58;28.42;;;14.38;;
39490;SDS011;25175;50.140;18.990;2022-08-19T05:45:03;30.05;;;13.80;;
39490;SDS011;25175;50.140;18.990;2022-08-19T05:48:05;22.90;;;13.65;;
39490;SDS011;25175;50.140;18.990;2022-08-19T05:51:08;28.05;;;13.45;;
39490;SDS011;25175;50.140;18.990;2022-08-19T05:54:10;30.48;;;13.55;;
39490;SDS011;25175;50.140;18.990;2022-08-19T05:57:13;25.45;;;13.43;;
39490;SDS011;25175;50.140;18.990;2022-08-19T06:00:17;23.83;;;13.38;;
39490;SDS011;25175;50.140;18.990;2022-08-19T06:03:19;23.38;;;12.77;;
39490;SDS011;25175;50.140;18.990;2022-08-19T06:06:22;24.10;;;13.52;;
39490;SDS011;25175;50.140;18.990;2022-08-19T06:09:24;23.55;;;13.27;;
39490;SDS011;25175;50.140;18.990;2022-08-19T06:12:27;24.80;;;13.55;;
39490;SDS011;25175;50.140;18.990;2022-08-19T06:15:33;26.27;;;12.98;;
39490;SDS011;25175;50.140;18.990;2022-08-19T06:18:35;22.00;;;12.63;;
39490;SDS011;25175;50.140;18.990;2022-08-19T06:21:38;25.63;;;12.75;;
39490;SDS011;25175;50.140;18.990;2022-08-19T06:24:42;25.83;;;11.73;;
39490;SDS011;25175;50.140;18.990;2022-08-19T06:27:44;26.38;;;11.48;;
39490;SDS011;25175;50.140;18.990;2022-08-19T06:30:48;18.65;;;12.27;;
39490;SDS011;25175;50.140;18.990;2022-08-19T06:33:51;21.75;;;11.20;;
39490;SDS011;25175;50.140;18.990;2022-08-19T06:36:54;25.77;;;11.80;;
39490;SDS011;25175;50.140;18.990;2022-08-19T06:39:57;19.15;;;11.73;;
39490;SDS011;25175;50.140;18.990;2022-08-19T06:42:59;23.10;;;12.40;;
39490;SDS011;25175;50.140;18.990;2022-08-19T06:46:04;20.55;;;12.07;;
39490;SDS011;25175;50.140;18.990;2022-08-19T06:49:12;22.17;;;11.45;;
39490;SDS011;25175;50.140;18.990;2022-08-19T06:52:15;21.42;;;11.75;;
39490;SDS011;25175;50.140;18.990;2022-08-19T06:55:17;20.70;;;12.18;;
39490;SDS011;25175;50.140;18.990;2022-08-19T06:58:19;23.40;;;11.77;;
39490;SDS011;25175;50.140;18.990;2022-08-19T07:01:22;19.80;;;12.13;;
39490;SDS011;25175;50.140;18.990;2022-08-19T07:04:26;21.55;;;12.20;;
39490;SDS011;25175;50.140;18.990;2022-08-19T07:07:30;18.05;;;11.73;;
39490;SDS011;25175;50.140;18.990;2022-08-19T07:10:34;21.23;;;12.45;;
39490;SDS011;25175;50.140;18.990;2022-08-19T07:13:37;22.10;;;12.57;;
39490;SDS011;25175;50.140;18.990;2022-08-19T07:16:40;22.27;;;12.98;;
39490;SDS011;25175;50.140;18.990;2022-08-19T07:19:42;23.42;;;12.93;;
39490;SDS011;25175;50.140;18.990;2022-08-19T07:22:44;21.40;;;12.40;;
39490;SDS011;25175;50.140;18.990;2022-08-19T07:25:47;27.42;;;12.85;;
39490;SDS011;25175;50.140;18.990;2022-08-19T07:28:49;24.08;;;12.15;;
39490;SDS011;25175;50.140;18.990;2022-08-19T07:31:53;24.23;;;12.30;;
39490;SDS011;25175;50.140;18.990;2022-08-19T07:34:56;19.27;;;11.95;;
39490;SDS011;25175;50.140;18.990;2022-08-19T07:38:00;19.33;;;11.70;;
39490;SDS011;25175;50.140;18.990;2022-08-19T07:41:05;18.27;;;12.02;;
39490;SDS011;25175;50.140;18.990;2022-08-19T07:44:08;18.20;;;11.80;;
39490;SDS011;25175;50.140;18.990;2022-08-19T07:47:12;23.95;;;11.60;;
39490;SDS011;25175;50.140;18.990;2022-08-19T07:50:17;20.27;;;11.48;;
39490;SDS011;25175;50.140;18.990;2022-08-19T07:53:20;21.67;;;11.82;;
39490;SDS011;25175;50.140;18.990;2022-08-19T07:56:23;20.58;;;11.07;;
39490;SDS011;25175;50.140;18.990;2022-08-19T07:59:26;19.77;;;10.95;;
39490;SDS011;25175;50.140;18.990;2022-08-19T08:02:30;17.98;;;11.88;;
39490;SDS011;25175;50.140;18.990;2022-08-19T08:05:33;22.63;;;11.50;;
39490;SDS011;25175;50.140;18.990;2022-08-19T08:08:52;21.35;;;10.43;;
39490;SDS011;25175;50.140;18.990;2022-08-19T08:12:21;16.58;;;10.70;;
39490;SDS011;25175;50.140;18.990;2022-08-19T08:15:28;24.88;;;10.65;;
39490;SDS011;25175;50.140;18.990;2022-08-19T08:18:32;17.35;;;10.02;;
39490;SDS011;25175;50.140;18.990;2022-08-19T08:21:41;16.95;;;10.15;;
39490;SDS011;25175;50.140;18.990;2022-08-19T08:24:44;15.68;;;10.30;;
39490;SDS011;25175;50.140;18.990;2022-08-19T08:27:46;16.75;;;10.45;;
39490;SDS011;25175;50.140;18.990;2022-08-19T08:30:51;20.15;;;10.43;;
39490;SDS011;25175;50.140;18.990;2022-08-19T08:33:56;24.23;;;9.98;;
39490;SDS011;25175;50.140;18.990;2022-08-19T08:36:58;18.63;;;10.73;;
39490;SDS011;25175;50.140;18.990;2022-08-19T08:40:02;19.88;;;9.90;;
39490;SDS011;25175;50.140;18.990;2022-08-19T08:43:07;16.55;;;10.18;;
39490;SDS011;25175;50.140;18.990;2022-08-19T08:46:15;21.05;;;9.45;;
39490;SDS011;25175;50.140;18.990;2022-08-19T08:49:29;22.52;;;10.05;;
39490;SDS011;25175;50.140;18.990;2022-08-19T08:52:35;24.90;;;9.68;;
39490;SDS011;25175;50.140;18.990;2022-08-19T08:55:42;18.80;;;9.25;;
39490;SDS011;25175;50.140;18.990;2022-08-19T08:58:49;20.48;;;8.68;;
39490;SDS011;25175;50.140;18.990;2022-08-19T09:01:56;22.70;;;9.32;;
39490;SDS011;25175;50.140;18.990;2022-08-19T09:05:00;16.63;;;9.18;;
39490;SDS011;25175;50.140;18.990;2022-08-19T09:08:03;15.65;;;8.77;;
39490;SDS011;25175;50.140;18.990;2022-08-19T09:11:11;15.05;;;9.00;;
39490;SDS011;25175;50.140;18.990;2022-08-19T09:14:27;18.27;;;8.57;;
39490;SDS011;25175;50.140;18.990;2022-08-19T09:17:36;19.15;;;8.55;;
39490;SDS011;25175;50.140;18.990;2022-08-19T09:20:40;23.50;;;9.05;;
39490;SDS011;25175;50.140;18.990;2022-08-19T09:23:42;17.88;;;8.45;;
39490;SDS011;25175;50.140;18.990;2022-08-19T09:26:44;14.63;;;8.35;;
39490;SDS011;25175;50.140;18.990;2022-08-19T09:29:47;16.40;;;8.98;;
39490;SDS011;25175;50.140;18.990;2022-08-19T09:32:49;25.42;;;8.35;;
39490;SDS011;25175;50.140;18.990;2022-08-19T09:36:02;14.50;;;7.72;;
39490;SDS011;25175;50.140;18.990;2022-08-19T09:39:05;14.68;;;7.45;;
39490;SDS011;25175;50.140;18.990;2022-08-19T09:42:08;15.88;;;7.85;;
39490;SDS011;25175;50.140;18.990;2022-08-19T09:45:12;13.65;;;7.32;;
39490;SDS011;25175;50.140;18.990;2022-08-19T09:48:15;15.23;;;7.13;;
39490;SDS011;25175;50.140;18.990;2022-08-19T09:51:19;13.93;;;7.28;;
39490;SDS011;25175;50.140;18.990;2022-08-19T09:54:23;10.77;;;7.65;;
39490;SDS011;25175;50.140;18.990;2022-08-19T09:57:27;12.68;;;7.70;;
39490;SDS011;25175;50.140;18.990;2022-08-19T10:00:29;13.98;;;7.90;;
39490;SDS011;25175;50.140;18.990;2022-08-19T10:03:32;22.40;;;8.00;;
39490;SDS011;25175;50.140;18.990;2022-08-19T10:06:38;17.55;;;8.07;;
39490;SDS011;25175;50.140;18.990;2022-08-19T10:09:43;19.42;;;8.43;;
39490;SDS011;25175;50.140;18.990;2022-08-19T10:12:45;19.13;;;7.78;;
39490;SDS011;25175;50.140;18.990;2022-08-19T10:15:47;13.38;;;8.27;;
39490;SDS011;25175;50.140;18.990;2022-08-19T10:18:51;13.85;;;7.70;;
39490;SDS011;25175;50.140;18.990;2022-08-19T10:21:55;14.52;;;7.65;;
39490;SDS011;25175;50.140;18.990;2022-08-19T10:24:57;13.48;;;6.88;;
39490;SDS011;25175;50.140;18.990;2022-08-19T10:27:59;12.30;;;7.25;;
39490;SDS011;25175;50.140;18.990;2022-08-19T10:31:03;11.05;;;6.90;;
39490;SDS011;25175;50.140;18.990;2022-08-19T10:34:06;21.25;;;6.80;;
39490;SDS011;25175;50.140;18.990;2022-08-19T10:37:11;15.27;;;6.88;;
39490;SDS011;25175;50.140;18.990;2022-08-19T10:40:13;13.68;;;6.28;;
39490;SDS011;25175;50.140;18.990;2022-08-19T10:43:15;12.23;;;5.90;;
39490;SDS011;25175;50.140;18.990;2022-08-19T10:46:18;14.82;;;6.35;;
39490;SDS011;25175;50.140;18.990;2022-08-19T10:49:20;16.77;;;6.25;;
39490;SDS011;25175;50.140;18.990;2022-08-19T10:52:26;23.42;;;6.47;;
39490;SDS011;25175;50.140;18.990;2022-08-19T10:55:37;12.13;;;6.00;;
39490;SDS011;25175;50.140;18.990;2022-08-19T10:58:57;10.98;;;5.93;;
39490;SDS011;25175;50.140;18.990;2022-08-19T11:02:00;14.55;;;6.00;;
39490;SDS011;25175;50.140;18.990;2022-08-19T11:05:04;12.93;;;6.28;;
39490;SDS011;25175;50.140;18.990;2022-08-19T11:08:09;12.75;;;5.97;;
39490;SDS011;25175;50.140;18.990;2022-08-19T11:11:12;10.70;;;5.88;;
39490;SDS011;25175;50.140;18.990;2022-08-19T11:14:15;12.88;;;6.25;;
39490;SDS011;25175;50.140;18.990;2022-08-19T11:20:24;11.60;;;6.20;;
39490;SDS011;25175;50.140;18.990;2022-08-19T11:23:27;11.57;;;6.13;;
39490;SDS011;25175;50.140;18.990;2022-08-19T11:26:30;14.75;;;6.80;;
39490;SDS011;25175;50.140;18.990;2022-08-19T11:29:32;12.45;;;6.15;;
39490;SDS011;25175;50.140;18.990;2022-08-19T11:32:34;14.80;;;5.90;;
39490;SDS011;25175;50.140;18.990;2022-08-19T11:35:38;12.95;;;5.63;;
39490;SDS011;25175;50.140;18.990;2022-08-19T11:38:42;9.93;;;6.13;;
39490;SDS011;25175;50.140;18.990;2022-08-19T11:41:45;19.15;;;6.18;;
39490;SDS011;25175;50.140;18.990;2022-08-19T11:44:47;26.17;;;5.75;;
39490;SDS011;25175;50.140;18.990;2022-08-19T11:47:50;10.88;;;5.63;;
39490;SDS011;25175;50.140;18.990;2022-08-19T11:50:52;9.77;;;6.30;;
39490;SDS011;25175;50.140;18.990;2022-08-19T11:53:58;8.93;;;5.97;;
39490;SDS011;25175;50.140;18.990;2022-08-19T11:57:01;12.00;;;5.47;;
39490;SDS011;25175;50.140;18.990;2022-08-19T12:00:04;13.32;;;5.97;;
39490;SDS011;25175;50.140;18.990;2022-08-19T12:03:07;15.63;;;6.13;;
39490;SDS011;25175;50.140;18.990;2022-08-19T12:06:10;11.63;;;5.60;;
39490;SDS011;25175;50.140;18.990;2022-08-19T12:12:19;14.82;;;5.80;;
39490;SDS011;25175;50.140;18.990;2022-08-19T12:15:22;11.50;;;5.60;;
39490;SDS011;25175;50.140;18.990;2022-08-19T12:18:24;9.70;;;5.65;;
39490;SDS011;25175;50.140;18.990;2022-08-19T12:21:27;16.50;;;5.55;;
39490;SDS011;25175;50.140;18.990;2022-08-19T12:24:31;13.80;;;5.57;;
39490;SDS011;25175;50.140;18.990;2022-08-19T12:27:34;10.55;;;5.40;;
39490;SDS011;25175;50.140;18.990;2022-08-19T12:30:37;12.30;;;5.43;;
39490;SDS011;25175;50.140;18.990;2022-08-19T12:33:39;15.02;;;6.03;;
39490;SDS011;25175;50.140;18.990;2022-08-19T12:36:42;12.48;;;5.68;;
39490;SDS011;25175;50.140;18.990;2022-08-19T12:39:46;17.17;;;6.15;;
39490;SDS011;25175;50.140;18.990;2022-08-19T12:42:48;32.00;;;6.55;;
39490;SDS011;25175;50.140;18.990;2022-08-19T12:45:51;14.82;;;5.60;;
39490;SDS011;25175;50.140;18.990;2022-08-19T12:48:53;14.80;;;5.22;;
39490;SDS011;25175;50.140;18.990;2022-08-19T12:51:55;11.25;;;5.70;;
39490;SDS011;25175;50.140;18.990;2022-08-19T12:55:00;12.35;;;5.85;;
39490;SDS011;25175;50.140;18.990;2022-08-19T12:58:02;15.10;;;5.53;;
39490;SDS011;25175;50.140;18.990;2022-08-19T13:01:08;18.35;;;5.50;;
39490;SDS011;25175;50.140;18.990;2022-08-19T13:04:12;13.82;;;5.18;;
39490;SDS011;25175;50.140;18.990;2022-08-19T13:07:14;14.80;;;5.63;;
39490;SDS011;25175;50.140;18.990;2022-08-19T13:10:18;11.65;;;5.53;;
39490;SDS011;25175;50.140;18.990;2022-08-19T13:13:22;15.55;;;5.28;;
39490;SDS011;25175;50.140;18.990;2022-08-19T13:16:26;15.65;;;5.43;;
39490;SDS011;25175;50.140;18.990;2022-08-19T13:19:29;13.48;;;5.50;;
39490;SDS011;25175;50.140;18.990;2022-08-19T13:22:32;13.63;;;6.03;;
39490;SDS011;25175;50.140;18.990;2022-08-19T13:25:35;14.32;;;5.85;;
39490;SDS011;25175;50.140;18.990;2022-08-19T13:28:37;11.55;;;5.63;;
39490;SDS011;25175;50.140;18.990;2022-08-19T13:31:58;14.13;;;5.93;;
39490;SDS011;25175;50.140;18.990;2022-08-19T13:35:18;13.43;;;5.43;;
39490;SDS011;25175;50.140;18.990;2022-08-19T13:38:20;17.58;;;5.55;;
39490;SDS011;25175;50.140;18.990;2022-08-19T13:41:24;12.25;;;5.70;;
39490;SDS011;25175;50.140;18.990;2022-08-19T13:44:27;13.73;;;5.30;;
39490;SDS011;25175;50.140;18.990;2022-08-19T13:47:30;13.35;;;4.95;;
39490;SDS011;25175;50.140;18.990;2022-08-19T13:50:33;15.15;;;4.95;;
39490;SDS011;25175;50.140;18.990;2022-08-19T13:53:37;12.45;;;5.53;;
39490;SDS011;25175;50.140;18.990;2022-08-19T13:56:41;13.13;;;5.20;;
39490;SDS011;25175;50.140;18.990;2022-08-19T13:59:44;10.13;;;5.25;;
39490;SDS011;25175;50.140;18.990;2022-08-19T14:02:47;15.48;;;5.50;;
39490;SDS011;25175;50.140;18.990;2022-08-19T14:05:51;11.27;;;5.15;;
39490;SDS011;25175;50.140;18.990;2022-08-19T14:08:53;14.07;;;5.20;;
39490;SDS011;25175;50.140;18.990;2022-08-19T14:11:57;13.73;;;5.25;;
39490;SDS011;25175;50.140;18.990;2022-08-19T14:14:59;14.15;;;5.68;;
39490;SDS011;25175;50.140;18.990;2022-08-19T14:18:04;13.40;;;5.45;;
39490;SDS011;25175;50.140;18.990;2022-08-19T14:21:06;15.73;;;5.47;;
39490;SDS011;25175;50.140;18.990;2022-08-19T14:24:09;12.50;;;5.45;;
39490;SDS011;25175;50.140;18.990;2022-08-19T14:27:12;12.50;;;5.43;;
39490;SDS011;25175;50.140;18.990;2022-08-19T14:30:16;13.80;;;5.85;;
39490;SDS011;25175;50.140;18.990;2022-08-19T14:33:25;15.70;;;5.40;;
39490;SDS011;25175;50.140;18.990;2022-08-19T14:36:28;18.23;;;5.03;;
39490;SDS011;25175;50.140;18.990;2022-08-19T14:39:31;19.00;;;5.97;;
39490;SDS011;25175;50.140;18.990;2022-08-19T14:42:35;13.73;;;5.93;;
39490;SDS011;25175;50.140;18.990;2022-08-19T14:45:38;14.90;;;6.65;;
39490;SDS011;25175;50.140;18.990;2022-08-19T14:48:41;16.02;;;6.97;;
39490;SDS011;25175;50.140;18.990;2022-08-19T14:51:43;9.82;;;5.93;;
39490;SDS011;25175;50.140;18.990;2022-08-19T14:54:47;18.35;;;6.07;;
39490;SDS011;25175;50.140;18.990;2022-08-19T14:57:51;18.85;;;6.07;;
39490;SDS011;25175;50.140;18.990;2022-08-19T15:00:53;16.38;;;5.72;;
39490;SDS011;25175;50.140;18.990;2022-08-19T15:03:55;14.65;;;5.70;;
39490;SDS011;25175;50.140;18.990;2022-08-19T15:06:57;14.10;;;5.97;;
39490;SDS011;25175;50.140;18.990;2022-08-19T15:09:59;14.55;;;5.65;;
39490;SDS011;25175;50.140;18.990;2022-08-19T15:13:03;14.90;;;5.18;;
39490;SDS011;25175;50.140;18.990;2022-08-19T15:16:05;19.50;;;5.35;;
39490;SDS011;25175;50.140;18.990;2022-08-19T15:19:08;12.48;;;6.47;;
39490;SDS011;25175;50.140;18.990;2022-08-19T15:22:10;14.05;;;5.40;;
39490;SDS011;25175;50.140;18.990;2022-08-19T15:25:14;18.48;;;5.85;;
39490;SDS011;25175;50.140;18.990;2022-08-19T15:28:22;15.82;;;6.35;;
39490;SDS011;25175;50.140;18.990;2022-08-19T15:31:24;17.63;;;6.05;;
39490;SDS011;25175;50.140;18.990;2022-08-19T15:34:28;14.63;;;7.18;;
39490;SDS011;25175;50.140;18.990;2022-08-19T15:37:32;12.77;;;6.55;;
39490;SDS011;25175;50.140;18.990;2022-08-19T15:40:34;18.95;;;6.53;;
39490;SDS011;25175;50.140;18.990;2022-08-19T15:43:38;17.42;;;6.68;;
39490;SDS011;25175;50.140;18.990;2022-08-19T15:49:45;20.73;;;6.60;;
39490;SDS011;25175;50.140;18.990;2022-08-19T15:52:48;19.20;;;6.90;;
39490;SDS011;25175;50.140;18.990;2022-08-19T15:55:54;22.38;;;7.05;;
39490;SDS011;25175;50.140;18.990;2022-08-19T15:58:57;14.63;;;6.45;;
39490;SDS011;25175;50.140;18.990;2022-08-19T16:02:19;14.52;;;6.70;;
39490;SDS011;25175;50.140;18.990;2022-08-19T16:05:40;21.77;;;7.25;;
39490;SDS011;25175;50.140;18.990;2022-08-19T16:09:00;16.40;;;6.88;;
39490;SDS011;25175;50.140;18.990;2022-08-19T16:12:04;18.75;;;7.10;;
39490;SDS011;25175;50.140;18.990;2022-08-19T16:15:10;17.38;;;6.72;;
39490;SDS011;25175;50.140;18.990;2022-08-19T16:18:13;17.75;;;7.28;;
39490;SDS011;25175;50.140;18.990;2022-08-19T16:21:15;15.38;;;6.75;;
39490;SDS011;25175;50.140;18.990;2022-08-19T16:24:18;21.17;;;7.13;;
39490;SDS011;25175;50.140;18.990;2022-08-19T16:27:22;17.55;;;7.05;;
39490;SDS011;25175;50.140;18.990;2022-08-19T16:30:27;17.52;;;6.70;;
39490;SDS011;25175;50.140;18.990;2022-08-19T16:33:29;17.00;;;7.20;;
39490;SDS011;25175;50.140;18.990;2022-08-19T16:36:31;18.70;;;7.00;;
39490;SDS011;25175;50.140;18.990;2022-08-19T16:39:34;19.25;;;6.78;;
39490;SDS011;25175;50.140;18.990;2022-08-19T16:42:36;16.45;;;6.50;;
39490;SDS011;25175;50.140;18.990;2022-08-19T16:45:40;16.80;;;6.78;;
39490;SDS011;25175;50.140;18.990;2022-08-19T16:48:42;17.20;;;7.43;;
39490;SDS011;25175;50.140;18.990;2022-08-19T16:51:45;26.83;;;7.88;;
39490;SDS011;25175;50.140;18.990;2022-08-19T16:54:48;20.33;;;7.50;;
39490;SDS011;25175;50.140;18.990;2022-08-19T16:57:51;23.15;;;7.65;;
39490;SDS011;25175;50.140;18.990;2022-08-19T17:00:54;17.75;;;7.45;;
39490;SDS011;25175;50.140;18.990;2022-08-19T17:03:58;21.63;;;7.63;;
39490;SDS011;25175;50.140;18.990;2022-08-19T17:07:00;18.17;;;7.72;;
39490;SDS011;25175;50.140;18.990;2022-08-19T17:10:03;13.77;;;7.20;;
39490;SDS011;25175;50.140;18.990;2022-08-19T17:13:06;20.00;;;8.10;;
39490;SDS011;25175;50.140;18.990;2022-08-19T17:16:09;28.52;;;9.10;;
39490;SDS011;25175;50.140;18.990;2022-08-19T17:19:12;18.42;;;9.13;;
39490;SDS011;25175;50.140;18.990;2022-08-19T17:22:14;28.88;;;11.55;;
39490;SDS011;25175;50.140;18.990;2022-08-19T17:25:16;18.95;;;12.20;;
39490;SDS011;25175;50.140;18.990;2022-08-19T17:28:19;27.92;;;12.50;;
39490;SDS011;25175;50.140;18.990;2022-08-19T17:31:25;23.67;;;11.65;;
39490;SDS011;25175;50.140;18.990;2022-08-19T17:34:29;26.58;;;10.35;;
39490;SDS011;25175;50.140;18.990;2022-08-19T17:37:33;15.95;;;8.10;;
39490;SDS011;25175;50.140;18.990;2022-08-19T17:40:36;19.95;;;8.30;;
39490;SDS011;25175;50.140;18.990;2022-08-19T17:43:41;19.08;;;7.97;;
39490;SDS011;25175;50.140;18.990;2022-08-19T17:46:44;14.45;;;7.90;;
39490;SDS011;25175;50.140;18.990;2022-08-19T17:49:47;23.45;;;8.63;;
39490;SDS011;25175;50.140;18.990;2022-08-19T17:52:50;22.92;;;9.38;;
39490;SDS011;25175;50.140;18.990;2022-08-19T17:55:52;25.77;;;8.10;;
39490;SDS011;25175;50.140;18.990;2022-08-19T17:58:54;15.60;;;8.10;;
39490;SDS011;25175;50.140;18.990;2022-08-19T18:01:58;18.45;;;6.82;;